createdAt,value
2023-11-15T00:01:37.962Z,75.17
2023-11-15T00:04:09.190Z,75.78
2023-11-15T00:06:38.556Z,76.06
2023-11-15T00:09:08.193Z,75.50
2023-11-15T00:11:37.506Z,75.69
2023-11-15T00:14:07.433Z,75.81
2023-11-15T00:16:36.822Z,75.72
2023-11-15T00:19:07.813Z,75.99
2023-11-15T00:21:37.606Z,75.97
2023-11-15T00:24:07.974Z,75.95
2023-11-15T00:26:38.027Z,75.60
2023-11-15T00:29:07.325Z,75.55
2023-11-15T00:31:36.644Z,75.07
2023-11-15T00:34:06.437Z,75.57
2023-11-15T00:36:37.437Z,75.45
2023-11-15T00:39:08.634Z,75.24
2023-11-15T00:41:38.388Z,75.39
2023-11-15T00:44:08.768Z,75.09
2023-11-15T00:46:38.150Z,74.74
2023-11-15T00:49:07.499Z,74.76
2023-11-15T00:51:36.991Z,75.26
2023-11-15T00:54:07.790Z,74.54
2023-11-15T00:56:37.242Z,74.38
2023-11-15T00:59:06.769Z,74.68
2023-11-15T01:01:36.110Z,73.98
2023-11-15T01:04:06.863Z,73.88
2023-11-15T01:06:36.393Z,73.79
2023-11-15T01:09:07.695Z,73.83
2023-11-15T01:11:37.255Z,73.77
2023-11-15T01:14:06.824Z,73.55
2023-11-15T01:16:36.163Z,73.57
2023-11-15T01:19:05.637Z,73.86
2023-11-15T01:21:34.901Z,73.95
2023-11-15T01:24:04.418Z,73.58
2023-11-15T01:26:33.771Z,73.83
2023-11-15T01:29:03.355Z,73.55
2023-11-15T01:31:32.904Z,73.52
2023-11-15T01:34:02.163Z,73.38
2023-11-15T01:36:31.638Z,73.12
2023-11-15T01:39:00.949Z,73.79
2023-11-15T01:41:30.849Z,73.11
2023-11-15T01:44:00.149Z,73.20
2023-11-15T01:46:29.693Z,73.17
2023-11-15T01:49:00.669Z,72.38
2023-11-15T01:51:30.070Z,72.80
2023-11-15T01:53:59.331Z,72.52
2023-11-15T01:56:28.692Z,72.50
2023-11-15T01:58:59.498Z,72.82
2023-11-15T02:01:28.883Z,72.68
2023-11-15T02:03:58.306Z,72.48
2023-11-15T02:06:29.888Z,72.49
2023-11-15T02:09:01.592Z,72.52
2023-11-15T02:11:31.478Z,71.94
2023-11-15T02:14:01.039Z,71.76
2023-11-15T02:16:30.510Z,71.93
2023-11-15T02:18:59.799Z,71.37
2023-11-15T02:21:29.880Z,71.33
2023-11-15T02:23:59.288Z,71.64
2023-11-15T02:26:28.668Z,71.86
2023-11-15T02:28:57.948Z,71.90
2023-11-15T02:31:27.304Z,71.91
2023-11-15T02:33:56.711Z,71.60
2023-11-15T02:36:26.083Z,71.80
2023-11-15T02:38:55.384Z,71.54
2023-11-15T02:41:24.924Z,71.14
2023-11-15T02:43:54.172Z,71.13
2023-11-15T02:46:23.995Z,71.38
2023-11-15T02:48:53.850Z,71.28
2023-11-15T02:51:23.109Z,71.27
2023-11-15T02:53:53.100Z,71.02
2023-11-15T02:56:22.899Z,70.63
2023-11-15T02:58:53.448Z,71.00
2023-11-15T03:01:22.750Z,71.08
2023-11-15T03:03:52.810Z,70.68
2023-11-15T03:06:22.092Z,71.28
2023-11-15T03:08:51.403Z,70.84
2023-11-15T03:11:20.758Z,71.43
2023-11-15T03:13:50.061Z,71.56
2023-11-15T03:16:19.508Z,71.04
2023-11-15T03:18:48.803Z,71.91
2023-11-15T03:21:18.160Z,71.66
2023-11-15T03:23:47.659Z,71.90
2023-11-15T03:26:17.337Z,72.03
2023-11-15T03:28:46.610Z,71.65
2023-11-15T03:31:16.050Z,72.38
2023-11-15T03:33:47.124Z,72.52
2023-11-15T03:36:17.106Z,72.75
2023-11-15T03:38:46.617Z,72.30
2023-11-15T03:41:16.017Z,73.34
2023-11-15T03:43:45.307Z,73.15
2023-11-15T03:46:14.592Z,72.96
2023-11-15T03:48:43.882Z,73.22
2023-11-15T03:51:13.276Z,73.21
2023-11-15T03:53:42.644Z,73.41
2023-11-15T03:56:11.992Z,73.60
2023-11-15T03:58:42.941Z,73.77
2023-11-15T04:01:12.237Z,73.51
2023-11-15T04:03:41.679Z,73.66
2023-11-15T04:06:11.321Z,73.53
2023-11-15T04:08:42.306Z,73.33
2023-11-15T04:11:11.793Z,73.88
2023-11-15T04:13:41.068Z,75.24
2023-11-15T04:16:10.683Z,75.38
2023-11-15T04:18:40.026Z,76.54
2023-11-15T04:21:09.320Z,76.37
2023-11-15T04:23:38.635Z,76.04
2023-11-15T04:26:07.996Z,76.28
2023-11-15T04:28:37.304Z,76.12
2023-11-15T04:31:06.822Z,75.99
2023-11-15T04:33:36.150Z,76.52
2023-11-15T04:36:06.205Z,75.99
2023-11-15T04:38:35.538Z,76.24
2023-11-15T04:41:06.872Z,75.54
2023-11-15T04:43:36.267Z,75.89
2023-11-15T04:46:05.792Z,75.65
2023-11-15T04:48:36.744Z,75.29
2023-11-15T04:51:06.758Z,75.36
2023-11-15T04:53:36.193Z,75.78
2023-11-15T04:56:05.839Z,75.41
2023-11-15T04:58:35.173Z,75.02
2023-11-15T05:01:05.278Z,74.94
2023-11-15T05:03:34.732Z,75.04
2023-11-15T05:06:05.350Z,75.10
2023-11-15T05:08:34.639Z,74.95
2023-11-15T05:11:04.241Z,75.12
2023-11-15T05:13:33.580Z,75.25
2023-11-15T05:16:04.636Z,74.66
2023-11-15T05:18:34.051Z,75.14
2023-11-15T05:21:03.366Z,75.06
2023-11-15T05:23:32.771Z,74.93
2023-11-15T05:26:02.178Z,74.66
2023-11-15T05:28:31.435Z,74.10
2023-11-15T05:31:00.777Z,74.30
2023-11-15T05:33:31.569Z,74.14
2023-11-15T05:36:01.464Z,74.28
2023-11-15T05:38:30.884Z,74.47
2023-11-15T05:41:00.209Z,74.33
2023-11-15T05:43:29.881Z,74.58
2023-11-15T05:45:59.251Z,74.97
2023-11-15T05:48:28.585Z,74.59
2023-11-15T05:50:57.951Z,74.67
2023-11-15T05:53:27.382Z,74.20
2023-11-15T05:55:56.807Z,74.82
2023-11-15T05:58:26.130Z,74.15
2023-11-15T06:00:55.412Z,74.50
2023-11-15T06:03:25.375Z,74.48
2023-11-15T06:05:54.732Z,74.65
2023-11-15T06:08:25.315Z,74.38
2023-11-15T06:10:54.601Z,75.04
2023-11-15T06:13:25.859Z,74.90
2023-11-15T06:15:55.183Z,74.47
2023-11-15T06:18:24.545Z,74.49
2023-11-15T06:20:53.904Z,74.79
2023-11-15T06:23:23.230Z,74.38
2023-11-15T06:25:52.553Z,74.53
2023-11-15T06:28:21.880Z,74.32
2023-11-15T06:30:51.276Z,74.46
2023-11-15T06:33:21.132Z,74.46
2023-11-15T06:35:50.497Z,74.85
2023-11-15T06:38:19.881Z,75.04
2023-11-15T06:40:50.294Z,74.39
2023-11-15T06:43:19.565Z,74.39
2023-11-15T06:45:48.868Z,74.10
2023-11-15T06:48:18.304Z,74.59
2023-11-15T06:50:47.722Z,74.34
2023-11-15T06:53:17.070Z,74.41
2023-11-15T06:55:47.825Z,74.04
2023-11-15T06:58:18.337Z,74.18
2023-11-15T07:00:49.020Z,75.39
2023-11-15T07:03:19.094Z,76.63
2023-11-15T07:05:50.282Z,75.25
2023-11-15T07:08:21.345Z,76.53
2023-11-15T07:10:50.667Z,76.98
2023-11-15T07:13:21.600Z,77.34
2023-11-15T07:15:51.534Z,76.78
2023-11-15T07:18:24.905Z,76.39
2023-11-15T07:20:53.754Z,76.78
2023-11-15T07:23:23.108Z,76.40
2023-11-15T07:25:52.407Z,76.93
2023-11-15T07:28:22.053Z,76.35
2023-11-15T07:30:51.810Z,76.60
2023-11-15T07:33:24.173Z,76.72
2023-11-15T07:35:53.768Z,76.83
2023-11-15T07:38:24.587Z,76.26
2023-11-15T07:40:53.934Z,76.25
2023-11-15T07:43:24.130Z,76.08
2023-11-15T07:45:55.083Z,76.20
2023-11-15T07:48:26.169Z,76.17
2023-11-15T07:50:57.598Z,75.43
2023-11-15T07:53:28.172Z,76.11
2023-11-15T07:55:59.150Z,75.95
2023-11-15T07:58:28.438Z,76.01
2023-11-15T08:00:57.819Z,75.89
2023-11-15T08:03:28.802Z,75.70
2023-11-15T08:05:58.183Z,76.01
2023-11-15T08:08:28.249Z,75.46
2023-11-15T08:10:57.550Z,75.03
2023-11-15T08:13:27.823Z,74.69
2023-11-15T08:15:57.623Z,74.55
2023-11-15T08:18:27.239Z,74.44
2023-11-15T08:20:57.702Z,74.62
2023-11-15T08:23:27.055Z,75.09
2023-11-15T08:25:56.406Z,74.92
2023-11-15T08:28:25.951Z,75.67
2023-11-15T08:30:55.240Z,75.61
2023-11-15T08:33:24.637Z,75.21
2023-11-15T08:35:54.666Z,75.47
2023-11-15T08:38:26.759Z,75.42
2023-11-15T08:40:56.831Z,75.68
2023-11-15T08:43:26.333Z,75.35
2023-11-15T08:45:57.472Z,75.86
2023-11-15T08:48:26.966Z,76.35
2023-11-15T08:50:56.571Z,76.55
2023-11-15T08:53:26.728Z,76.42
2023-11-15T08:55:56.840Z,76.20
2023-11-15T08:58:27.803Z,75.92
2023-11-15T09:00:59.083Z,74.80
2023-11-15T09:03:28.550Z,74.73
2023-11-15T09:05:59.708Z,75.10
2023-11-15T09:08:30.644Z,75.41
2023-11-15T09:10:59.935Z,75.89
2023-11-15T09:13:30.170Z,76.65
2023-11-15T09:16:00.294Z,76.58
2023-11-15T09:18:30.625Z,76.39
2023-11-15T09:21:01.677Z,75.74
2023-11-15T09:23:31.371Z,75.53
2023-11-15T09:26:00.941Z,75.16
2023-11-15T09:28:30.300Z,75.09
2023-11-15T09:30:59.849Z,74.70
2023-11-15T09:33:31.223Z,73.81
2023-11-15T09:36:01.872Z,73.75
2023-11-15T09:38:32.734Z,73.69
2023-11-15T09:41:02.433Z,73.36
2023-11-15T09:43:32.081Z,73.11
2023-11-15T09:46:04.183Z,73.67
2023-11-15T09:48:34.973Z,72.78
2023-11-15T09:51:05.663Z,72.58
2023-11-15T09:53:37.643Z,72.53
2023-11-15T09:56:09.325Z,72.20
2023-11-15T09:58:38.611Z,72.14
2023-11-15T10:01:09.776Z,71.57
2023-11-15T10:03:43.073Z,71.75
2023-11-15T10:06:14.125Z,70.34
2023-11-15T10:08:55.225Z,70.79
2023-11-15T10:11:27.213Z,71.17
2023-11-15T10:14:13.623Z,70.74
2023-11-15T10:16:50.191Z,70.47
2023-11-15T10:19:25.326Z,70.46
2023-11-15T10:22:03.665Z,69.92
2023-11-15T10:24:35.436Z,69.86
2023-11-15T10:27:12.257Z,69.64
2023-11-15T10:29:49.062Z,68.74
2023-11-15T10:32:24.312Z,67.29
2023-11-15T10:34:55.218Z,68.04
2023-11-15T10:37:25.330Z,67.04
2023-11-15T10:39:54.644Z,65.84
2023-11-15T10:42:24.407Z,65.15
2023-11-15T10:44:56.908Z,66.21
2023-11-15T10:47:27.454Z,65.83
2023-11-15T10:50:03.200Z,63.78
2023-11-15T10:52:33.148Z,63.20
2023-11-15T10:55:03.626Z,65.91
2023-11-15T10:57:33.436Z,66.74
2023-11-15T11:00:04.664Z,67.88
2023-11-15T11:02:35.958Z,69.33
2023-11-15T11:05:06.904Z,68.92
2023-11-15T11:07:41.350Z,68.75
2023-11-15T11:10:13.864Z,66.43
2023-11-15T11:12:43.406Z,65.97
2023-11-15T11:15:25.623Z,67.27
2023-11-15T11:18:15.575Z,69.39
2023-11-15T11:20:48.197Z,70.19
2023-11-15T11:23:21.706Z,70.69
2023-11-15T11:25:53.407Z,71.30
2023-11-15T11:28:23.179Z,72.63
2023-11-15T11:31:21.141Z,72.26
2023-11-15T11:34:13.345Z,71.40
2023-11-15T11:36:52.135Z,72.54
2023-11-15T11:39:50.085Z,73.04
2023-11-15T11:42:29.015Z,73.83
2023-11-15T11:44:58.355Z,73.82
2023-11-15T11:47:27.861Z,71.60
2023-11-15T11:49:58.757Z,70.77
2023-11-15T11:52:28.405Z,70.78
2023-11-15T11:54:57.892Z,70.72
2023-11-15T11:57:27.217Z,70.56
2023-11-15T12:00:16.094Z,68.63
2023-11-15T12:03:00.513Z,68.86
2023-11-15T12:05:26.013Z,68.32
2023-11-15T12:07:57.461Z,68.17
2023-11-15T12:10:27.151Z,70.69
2023-11-15T12:13:00.707Z,70.87
2023-11-15T12:15:30.182Z,70.85
2023-11-15T12:18:01.076Z,70.80
2023-11-15T12:20:40.028Z,71.39
2023-11-15T12:23:11.309Z,71.06
2023-11-15T12:25:53.880Z,70.97
2023-11-15T12:28:24.965Z,70.07
2023-11-15T12:30:56.600Z,68.99
2023-11-15T12:33:27.001Z,69.49
2023-11-15T12:35:57.860Z,68.30
2023-11-15T12:38:27.282Z,68.37
2023-11-15T12:41:07.812Z,68.51
2023-11-15T12:43:38.044Z,67.99
2023-11-15T12:46:20.491Z,68.36
2023-11-15T12:48:49.165Z,67.77
2023-11-15T12:51:19.512Z,68.09
2023-11-15T12:53:48.933Z,67.94
2023-11-15T12:56:20.512Z,68.70
2023-11-15T12:58:52.031Z,68.55
2023-11-15T13:01:21.989Z,68.35
2023-11-15T13:04:00.071Z,68.91
2023-11-15T13:06:34.028Z,68.55
2023-11-15T13:09:04.098Z,68.06
2023-11-15T13:11:33.533Z,68.11
2023-11-15T13:14:02.944Z,67.86
2023-11-15T13:16:33.975Z,67.75
2023-11-15T13:19:04.437Z,67.47
2023-11-15T13:21:33.897Z,67.17
2023-11-15T13:24:03.514Z,66.86
2023-11-15T13:26:32.820Z,67.07
2023-11-15T13:29:03.840Z,67.07
2023-11-15T13:31:33.091Z,67.21
2023-11-15T13:34:02.603Z,67.12
2023-11-15T13:36:32.652Z,66.37
2023-11-15T13:39:03.661Z,65.84
2023-11-15T13:41:32.981Z,67.28
2023-11-15T13:44:02.299Z,67.02
2023-11-15T13:46:33.057Z,67.17
2023-11-15T13:49:04.039Z,66.59
2023-11-15T13:51:33.877Z,66.44
2023-11-15T13:54:03.560Z,65.45
2023-11-15T13:56:33.205Z,65.56
2023-11-15T13:59:02.515Z,65.39
2023-11-15T14:01:31.901Z,64.07
2023-11-15T14:04:01.315Z,63.89
2023-11-15T14:06:30.649Z,64.33
2023-11-15T14:09:01.006Z,64.86
2023-11-15T14:11:30.949Z,64.46
2023-11-15T14:14:00.482Z,64.36
2023-11-15T14:16:29.799Z,64.95
2023-11-15T14:19:00.444Z,64.67
2023-11-15T14:21:31.592Z,65.10
2023-11-15T14:24:00.925Z,65.05
2023-11-15T14:26:30.213Z,65.58
2023-11-15T14:28:59.547Z,65.86
2023-11-15T14:31:29.452Z,66.05
2023-11-15T14:34:00.439Z,66.78
2023-11-15T14:36:30.683Z,67.10
2023-11-15T14:39:00.015Z,66.89
2023-11-15T14:41:30.983Z,67.34
2023-11-15T14:44:00.426Z,67.46
2023-11-15T14:46:31.346Z,68.07
2023-11-15T14:49:00.961Z,67.58
2023-11-15T14:51:30.248Z,67.26
2023-11-15T14:54:01.575Z,67.42
2023-11-15T14:56:31.137Z,67.32
2023-11-15T14:59:00.693Z,67.70
2023-11-15T15:01:30.005Z,67.68
2023-11-15T15:03:59.514Z,67.45
2023-11-15T15:06:29.458Z,67.19
2023-11-15T15:08:59.256Z,66.70
2023-11-15T15:11:28.730Z,67.22
2023-11-15T15:13:58.069Z,67.64
2023-11-15T15:16:28.010Z,66.94
2023-11-15T15:18:57.419Z,66.84
2023-11-15T15:21:26.869Z,66.75
2023-11-15T15:23:56.204Z,66.98
2023-11-15T15:26:25.551Z,66.51
2023-11-15T15:28:55.249Z,66.49
2023-11-15T15:31:24.617Z,66.47
2023-11-15T15:33:54.131Z,66.95
2023-11-15T15:36:24.001Z,67.36
2023-11-15T15:38:53.417Z,67.28
2023-11-15T15:41:23.372Z,67.96
2023-11-15T15:43:55.733Z,67.72
2023-11-15T15:46:24.019Z,67.52
2023-11-15T15:48:54.429Z,67.91
2023-11-15T15:51:25.180Z,68.04
2023-11-15T15:53:54.686Z,68.34
2023-11-15T15:56:25.132Z,68.18
2023-11-15T15:58:54.564Z,68.42
2023-11-15T16:01:29.217Z,68.75
2023-11-15T16:04:00.142Z,68.18
2023-11-15T16:06:29.564Z,68.86
2023-11-15T16:08:59.025Z,68.70
2023-11-15T16:11:28.303Z,68.76
2023-11-15T16:13:57.574Z,68.73
2023-11-15T16:16:26.946Z,68.40
2023-11-15T16:18:56.493Z,68.91
2023-11-15T16:21:25.896Z,68.73
2023-11-15T16:23:56.892Z,68.47
2023-11-15T16:26:26.207Z,69.20
2023-11-15T16:28:55.497Z,69.16
2023-11-15T16:31:24.890Z,68.80
2023-11-15T16:33:54.534Z,68.89
2023-11-15T16:36:23.891Z,69.33
2023-11-15T16:38:53.322Z,69.37
2023-11-15T16:41:22.613Z,69.20
2023-11-15T16:43:51.945Z,69.42
2023-11-15T16:46:21.228Z,69.21
2023-11-15T16:48:50.639Z,69.67
2023-11-15T16:51:20.014Z,68.88
2023-11-15T16:53:51.042Z,68.83
2023-11-15T16:56:20.410Z,69.18
2023-11-15T16:58:49.674Z,68.69
2023-11-15T17:01:19.013Z,68.82
2023-11-15T17:03:48.444Z,68.93
2023-11-15T17:06:20.709Z,68.75
2023-11-15T17:08:50.599Z,68.17
2023-11-15T17:11:20.482Z,68.65
2023-11-15T17:13:50.155Z,68.64
2023-11-15T17:16:19.871Z,68.41
2023-11-15T17:18:49.968Z,68.95
2023-11-15T17:23:48.783Z,68.60
2023-11-15T17:26:18.772Z,68.49
2023-11-15T17:28:48.369Z,68.04
2023-11-15T17:31:22.435Z,68.32
2023-11-15T17:33:50.528Z,68.08
2023-11-15T17:36:21.565Z,67.95
2023-11-15T17:38:51.055Z,68.07
2023-11-15T17:41:21.189Z,68.04
2023-11-15T17:43:50.493Z,68.17
2023-11-15T17:46:20.267Z,68.55
2023-11-15T17:48:49.558Z,67.96
2023-11-15T17:51:18.972Z,68.13
2023-11-15T17:53:48.339Z,67.92
2023-11-15T17:56:17.677Z,68.36
2023-11-15T17:58:48.488Z,68.64
2023-11-15T18:01:18.619Z,68.75
2023-11-15T18:03:48.051Z,68.79
2023-11-15T18:06:19.120Z,68.39
2023-11-15T18:08:48.403Z,68.09
2023-11-15T18:11:18.265Z,67.90
2023-11-15T18:13:47.631Z,68.06
2023-11-15T18:16:17.089Z,68.03
2023-11-15T18:18:46.892Z,68.36
2023-11-15T18:21:16.321Z,68.57
2023-11-15T18:23:45.585Z,68.08
2023-11-15T18:26:15.844Z,68.23
2023-11-15T18:28:45.781Z,67.89
2023-11-15T18:31:15.120Z,67.70
2023-11-15T18:33:44.551Z,67.89
2023-11-15T18:36:13.904Z,67.60
2023-11-15T18:38:43.170Z,67.79
2023-11-15T18:41:13.786Z,67.83
2023-11-15T18:43:44.946Z,68.09
2023-11-15T18:46:14.524Z,67.83
2023-11-15T18:48:44.048Z,67.94
2023-11-15T18:51:13.514Z,67.85
2023-11-15T18:53:42.926Z,67.18
2023-11-15T18:56:12.238Z,67.55
2023-11-15T18:58:41.830Z,67.64
2023-11-15T19:01:11.467Z,67.32
2023-11-15T19:03:40.979Z,67.79
2023-11-15T19:06:10.564Z,69.04
2023-11-15T19:08:40.662Z,69.76
2023-11-15T19:11:09.926Z,70.53
2023-11-15T19:13:40.866Z,71.44
2023-11-15T19:16:10.287Z,71.59
2023-11-15T19:18:39.641Z,71.90
2023-11-15T19:21:09.644Z,72.45
2023-11-15T19:23:40.676Z,72.49
2023-11-15T19:26:11.212Z,72.09
2023-11-15T19:28:42.180Z,72.05
2023-11-15T19:31:11.495Z,72.09
2023-11-15T19:33:42.344Z,71.72
2023-11-15T19:36:12.308Z,71.26
2023-11-15T19:38:42.054Z,71.32
2023-11-15T19:41:11.604Z,71.35
2023-11-15T19:43:42.663Z,70.48
2023-11-15T19:46:19.694Z,70.61
2023-11-15T19:48:49.104Z,70.48
2023-11-15T19:51:22.871Z,70.87
2023-11-15T19:53:56.983Z,71.10
2023-11-15T19:56:26.244Z,70.69
2023-11-15T19:58:55.601Z,69.77
2023-11-15T20:01:26.053Z,69.74
2023-11-15T20:03:55.974Z,69.39
2023-11-15T20:06:29.279Z,69.14
2023-11-15T20:08:58.293Z,68.85
2023-11-15T20:11:28.050Z,68.44
2023-11-15T20:13:57.382Z,68.08
2023-11-15T20:16:28.589Z,67.90
2023-11-15T20:18:58.032Z,68.01
2023-11-15T20:21:27.533Z,68.18
2023-11-15T20:23:56.958Z,67.70
2023-11-15T20:26:26.326Z,67.41
2023-11-15T20:28:55.668Z,67.38
2023-11-15T20:31:26.919Z,67.28
2023-11-15T20:33:56.336Z,66.87
2023-11-15T20:36:25.834Z,66.87
2023-11-15T20:38:55.217Z,66.99
2023-11-15T20:41:24.529Z,66.87
2023-11-15T20:43:53.882Z,66.68
2023-11-15T20:46:23.509Z,66.78
2023-11-15T20:48:54.521Z,66.32
2023-11-15T20:51:23.854Z,66.33
2023-11-15T20:53:53.340Z,66.44
2023-11-15T20:56:22.761Z,66.40
2023-11-15T20:58:52.104Z,66.32
2023-11-15T21:01:22.838Z,66.12
2023-11-15T21:03:55.289Z,66.58
2023-11-15T21:06:24.163Z,66.43
2023-11-15T21:08:53.394Z,65.80
2023-11-15T21:11:24.794Z,65.92
2023-11-15T21:13:55.561Z,65.94
2023-11-15T21:16:25.367Z,66.16
2023-11-15T21:18:55.019Z,65.73
2023-11-15T21:21:24.697Z,65.68
2023-11-15T21:23:54.170Z,65.38
2023-11-15T21:26:23.863Z,65.58
2023-11-15T21:28:54.939Z,65.26
2023-11-15T21:31:24.257Z,65.18
2023-11-15T21:33:53.655Z,64.94
2023-11-15T21:36:23.027Z,65.22
2023-11-15T21:38:52.390Z,65.47
2023-11-15T21:41:21.653Z,64.73
2023-11-15T21:43:51.253Z,64.92
2023-11-15T21:46:21.654Z,65.46
2023-11-15T21:48:51.019Z,65.40
2023-11-15T21:51:23.382Z,65.33
2023-11-15T21:53:54.611Z,65.66
2023-11-15T21:56:23.771Z,65.32
2023-11-15T21:58:53.599Z,65.22
2023-11-15T22:01:24.819Z,65.05
2023-11-15T22:03:54.313Z,65.17
2023-11-15T22:06:24.605Z,65.40
2023-11-15T22:08:54.095Z,65.22
2023-11-15T22:11:23.433Z,65.67
2023-11-15T22:13:52.740Z,65.53
2023-11-15T22:16:22.592Z,65.74
2023-11-15T22:18:51.890Z,65.30
2023-11-15T22:21:21.404Z,65.47
2023-11-15T22:23:50.733Z,65.60
2023-11-15T22:26:20.065Z,66.09
2023-11-15T22:28:52.279Z,65.85
2023-11-15T22:31:21.696Z,65.90
2023-11-15T22:33:52.798Z,65.79
2023-11-15T22:36:22.235Z,66.03
2023-11-15T22:38:52.629Z,65.87
2023-11-15T22:41:22.095Z,66.14
2023-11-15T22:43:51.579Z,66.03
2023-11-15T22:46:20.952Z,66.36
2023-11-15T22:48:50.416Z,66.52
2023-11-15T22:51:20.037Z,66.64
2023-11-15T22:53:49.288Z,67.01
2023-11-15T22:56:19.634Z,66.36
2023-11-15T22:58:48.984Z,66.85
2023-11-15T23:01:18.483Z,66.68
2023-11-15T23:03:49.594Z,65.89
2023-11-15T23:06:19.937Z,66.25
2023-11-15T23:08:52.487Z,66.22
2023-11-15T23:11:23.403Z,66.13
2023-11-15T23:13:56.408Z,65.47
2023-11-15T23:16:26.056Z,66.60
2023-11-15T23:18:55.534Z,66.06
2023-11-15T23:21:25.464Z,66.42
2023-11-15T23:23:54.831Z,66.65
2023-11-15T23:26:26.131Z,66.60
2023-11-15T23:28:55.417Z,66.42
2023-11-15T23:31:26.177Z,66.39
2023-11-15T23:33:55.521Z,66.57
2023-11-15T23:36:24.853Z,66.42
2023-11-15T23:38:54.230Z,66.21
2023-11-15T23:41:25.368Z,66.27
2023-11-15T23:43:56.048Z,66.21
2023-11-15T23:46:25.304Z,66.32
2023-11-15T23:48:54.669Z,66.31
2023-11-15T23:51:24.024Z,66.41
2023-11-15T23:53:53.378Z,66.58
2023-11-15T23:56:22.675Z,66.18
2023-11-15T23:58:53.656Z,65.94
